Time,TemperatureF,DewpointF,PressureIn,WindDirection,WindDirectionDegrees,WindSpeedMPH,WindSpeedGustMPH,Humidity,HourlyPrecipIn,Conditions,Clouds,dailyrainin,SoftwareType,DateUTC
2013-01-02 00:00:00,35.2,25.4,29.82,WNW,292,3.5,3.5,67,0.00,CLR,CLR,0.00,WeatherDisplay:10.37,2013-01-02 05:00:00,
2013-01-02 00:01:00,35.2,25.4,29.82,WNW,292,3.5,3.5,67,0.00,CLR,CLR,0.00,WeatherDisplay:10.37,2013-01-02 05:01:00,
2013-01-02 00:02:00,35.2,25.4,29.82,West,270,0.9,0.0,67,0.00,CLR,CLR,0.00,WeatherDisplay:10.37,2013-01-02 05:02:00,
2013-01-02 00:03:00,35.2,25.4,29.82,WNW,292,1.2,1.2,67,0.00,CLR,CLR,0.00,WeatherDisplay:10.37,2013-01-02 05:03:00,
2013-01-02 00:08:00,34.9,24.7,29.82,WNW,292,1.2,0.0,66,0.00,CLR,CLR,0.00,WeatherDisplay:10.37,2013-01-02 05:08:00,
2013-01-02 00:14:00,34.9,24.7,29.82,WNW,292,1.2,1.2,66,0.00,CLR,CLR,0.00,WeatherDisplay:10.37,2013-01-02 05:14:00,
2013-01-02 00:19:00,34.5,24.3,29.81,WNW,292,2.3,2.3,66,0.00,CLR,CLR,0.00,WeatherDisplay:10.37,2013-01-02 05:19:00,
2013-01-02 00:24:00,34.3,24.2,29.81,WNW,292,0.0,0.0,66,0.00,CLR,CLR,0.00,WeatherDisplay:10.37,2013-01-02 05:24:00,
2013-01-02 00:29:00,34.3,24.2,29.82,WNW,292,2.3,2.3,66,0.00,CLR,CLR,0.00,WeatherDisplay:10.37,2013-01-02 05:29:00,
2013-01-02 00:34:00,34.3,24.2,29.81,West,270,1.2,1.2,66,0.00,CLR,CLR,0.00,WeatherDisplay:10.37,2013-01-02 05:34:00,
2013-01-02 00:39:00,34.3,24.5,29.83,SW,225,0.0,0.0,67,0.00,CLR,CLR,0.00,WeatherDisplay:10.37,2013-01-02 05:39:00,
2013-01-02 00:44:00,34.2,24.3,29.82,West,270,0.0,0.0,67,0.00,CLR,CLR,0.00,WeatherDisplay:10.37,2013-01-02 05:44:00,
2013-01-02 00:50:00,34.0,24.2,29.81,West,270,0.0,0.0,67,0.00,CLR,CLR,0.00,WeatherDisplay:10.37,2013-01-02 05:50:00,
2013-01-02 00:55:00,33.8,24.0,29.82,NW,315,0.0,0.0,67,0.00,CLR,CLR,0.00,WeatherDisplay:10.37,2013-01-02 05:55:00,
2013-01-02 01:00:00,33.8,24.4,29.83,West,270,0.0,0.0,68,0.00,CLR,CLR,0.00,WeatherDisplay:10.37,2013-01-02 06:00:00,
2013-01-02 01:05:00,33.6,24.2,29.83,NW,315,0.0,0.0,68,0.00,CLR,CLR,0.00,WeatherDisplay:10.37,2013-01-02 06:05:00,
2013-01-02 01:10:00,33.6,23.8,29.82,NW,315,0.0,0.0,67,0.00,CLR,CLR,0.00,WeatherDisplay:10.37,2013-01-02 06:10:00,
2013-01-02 01:15:00,33.6,23.8,29.82,NNW,338,0.0,0.0,67,0.00,CLR,CLR,0.00,WeatherDisplay:10.37,2013-01-02 06:15:00,
2013-01-02 01:21:00,33.4,23.7,29.82,NW,315,0.0,0.0,67,0.00,CLR,CLR,0.00,WeatherDisplay:10.37,2013-01-02 06:21:00,
2013-01-02 01:26:00,33.4,23.7,29.82,NW,315,0.0,0.0,67,0.00,CLR,CLR,0.00,WeatherDisplay:10.37,2013-01-02 06:26:00,
2013-01-02 01:31:00,33.3,23.8,29.82,NW,315,0.0,0.0,68,0.00,CLR,CLR,0.00,WeatherDisplay:10.37,2013-01-02 06:31:00,
2013-01-02 01:36:00,33.1,23.7,29.82,NW,315,0.0,0.0,68,0.00,CLR,CLR,0.00,WeatherDisplay:10.37,2013-01-02 06:36:00,
2013-01-02 01:41:00,32.9,23.5,29.81,NW,315,0.0,0.0,68,0.00,CLR,CLR,0.00,WeatherDisplay:10.37,2013-01-02 06:41:00,
2013-01-02 01:46:00,32.9,23.5,29.82,NW,315,0.0,0.0,68,0.00,CLR,CLR,0.00,WeatherDisplay:10.37,2013-01-02 06:46:00,
2013-01-02 01:51:00,32.9,23.5,29.82,NW,315,0.0,0.0,68,0.00,CLR,CLR,0.00,WeatherDisplay:10.37,2013-01-02 06:51:00,
2013-01-02 01:56:00,32.7,23.3,29.82,NW,315,0.0,0.0,68,0.00,CLR,CLR,0.00,WeatherDisplay:10.37,2013-01-02 06:56:00,
2013-01-02 02:01:00,32.9,23.5,29.82,NW,315,0.0,0.0,68,0.00,CLR,CLR,0.00,WeatherDisplay:10.37,2013-01-02 07:01:00,
2013-01-02 02:07:00,32.9,23.5,29.82,NW,315,0.0,0.0,68,0.00,CLR,CLR,0.00,WeatherDisplay:10.37,2013-01-02 07:07:00,
2013-01-02 02:12:00,33.1,24.0,29.83,NW,315,0.0,0.0,69,0.00,CLR,CLR,0.00,WeatherDisplay:10.37,2013-01-02 07:12:00,
2013-01-02 02:17:00,33.1,23.7,29.83,NNW,338,0.0,0.0,68,0.00,CLR,CLR,0.00,WeatherDisplay:10.37,2013-01-02 07:17:00,
2013-01-02 02:22:00,33.1,23.7,29.83,WSW,248,0.0,0.0,68,0.00,CLR,CLR,0.00,WeatherDisplay:10.37,2013-01-02 07:22:00,
2013-01-02 02:27:00,33.1,23.7,29.83,WNW,292,0.0,0.0,68,0.00,CLR,CLR,0.00,WeatherDisplay:10.37,2013-01-02 07:27:00,
2013-01-02 02:32:00,33.1,23.7,29.83,WNW,292,1.3,0.0,68,0.00,CLR,CLR,0.00,WeatherDisplay:10.37,2013-01-02 07:32:00,
2013-01-02 02:38:00,33.1,23.3,29.83,WNW,292,0.0,0.0,67,0.00,CLR,CLR,0.00,WeatherDisplay:10.37,2013-01-02 07:38:00,
2013-01-02 02:43:00,33.1,23.3,29.83,NW,315,0.0,0.0,67,0.00,CLR,CLR,0.00,WeatherDisplay:10.37,2013-01-02 07:43:00,
2013-01-02 02:48:00,33.1,22.9,29.84,NW,315,0.0,0.0,66,0.00,CLR,CLR,0.00,WeatherDisplay:10.37,2013-01-02 07:48:00,
2013-01-02 02:53:00,33.1,22.9,29.84,WNW,292,0.0,0.0,66,0.00,CLR,CLR,0.00,WeatherDisplay:10.37,2013-01-02 07:53:00,
2013-01-02 02:59:00,33.1,22.9,29.83,NW,315,0.0,0.0,66,0.00,CLR,CLR,0.00,WeatherDisplay:10.37,2013-01-02 07:59:00,
2013-01-02 03:04:00,33.1,22.9,29.83,NW,315,0.0,0.0,66,0.00,CLR,CLR,0.00,WeatherDisplay:10.37,2013-01-02 08:04:00,
2013-01-02 03:09:00,32.9,22.8,29.83,NW,315,0.0,0.0,66,0.00,CLR,CLR,0.00,WeatherDisplay:10.37,2013-01-02 08:09:00,
2013-01-02 03:14:00,32.9,22.8,29.83,WNW,292,0.0,0.0,66,0.00,CLR,CLR,0.00,WeatherDisplay:10.37,2013-01-02 08:14:00,
2013-01-02 03:19:00,32.7,23.0,29.83,NW,315,0.0,0.0,67,0.00,CLR,CLR,0.00,WeatherDisplay:10.37,2013-01-02 08:19:00,
2013-01-02 03:24:00,32.7,22.6,29.82,NW,315,0.7,0.0,66,0.00,CLR,CLR,0.00,WeatherDisplay:10.37,2013-01-02 08:24:00,
2013-01-02 03:29:00,32.7,23.0,29.82,West,270,1.2,0.0,67,0.00,CLR,CLR,0.00,WeatherDisplay:10.37,2013-01-02 08:29:00,
2013-01-02 03:35:00,32.7,23.0,29.83,WNW,292,4.6,4.6,67,0.00,CLR,CLR,0.00,WeatherDisplay:10.37,2013-01-02 08:35:00,
2013-01-02 03:40:00,32.5,22.8,29.82,WNW,292,1.2,1.2,67,0.00,CLR,CLR,0.00,WeatherDisplay:10.37,2013-01-02 08:40:00,
2013-01-02 03:45:00,32.5,22.8,29.82,WNW,292,3.5,3.5,67,0.00,CLR,CLR,0.00,WeatherDisplay:10.37,2013-01-02 08:45:00,
2013-01-02 03:50:00,32.4,22.6,29.83,WSW,248,1.2,1.2,67,0.00,CLR,CLR,0.00,WeatherDisplay:10.37,2013-01-02 08:50:00,
2013-01-02 03:55:00,32.4,22.6,29.83,WNW,292,2.2,2.2,67,0.00,CLR,CLR,0.00,WeatherDisplay:10.37,2013-01-02 08:55:00,
2013-01-02 04:01:00,32.2,22.4,29.83,WNW,292,2.3,2.3,67,0.00,CLR,CLR,0.00,WeatherDisplay:10.37,2013-01-02 09:01:00,
2013-01-02 04:06:00,32.2,22.4,29.84,West,270,2.3,2.3,67,0.00,CLR,CLR,0.00,WeatherDisplay:10.37,2013-01-02 09:06:00,
2013-01-02 04:11:00,32.2,22.4,29.83,WNW,292,3.5,3.5,67,0.00,CLR,CLR,0.00,WeatherDisplay:10.37,2013-01-02 09:11:00,
2013-01-02 04:16:00,32.2,22.4,29.83,WNW,292,2.3,2.3,67,0.00,CLR,CLR,0.00,WeatherDisplay:10.37,2013-01-02 09:16:00,
2013-01-02 04:21:00,32.0,22.3,29.83,WNW,292,4.2,4.2,67,0.00,CLR,CLR,0.00,WeatherDisplay:10.37,2013-01-02 09:21:00,
2013-01-02 04:27:00,31.8,22.1,29.83,West,270,4.6,4.6,67,0.00,CLR,CLR,0.00,WeatherDisplay:10.37,2013-01-02 09:27:00,
2013-01-02 04:32:00,31.8,22.1,29.83,NW,315,3.5,3.5,67,0.00,CLR,CLR,0.00,WeatherDisplay:10.37,2013-01-02 09:32:00,
2013-01-02 04:37:00,31.8,22.1,29.84,NW,315,4.6,4.6,67,0.00,CLR,CLR,0.00,WeatherDisplay:10.37,2013-01-02 09:37:00,
2013-01-02 04:42:00,31.6,21.9,29.84,West,270,3.5,3.5,67,0.00,CLR,CLR,0.00,WeatherDisplay:10.37,2013-01-02 09:42:00,
2013-01-02 04:47:00,31.6,21.9,29.84,WNW,292,2.3,0.0,67,0.00,CLR,CLR,0.00,WeatherDisplay:10.37,2013-01-02 09:47:00,
2013-01-02 04:53:00,31.6,21.9,29.84,NW,315,1.8,0.0,67,0.00,CLR,CLR,0.00,WeatherDisplay:10.37,2013-01-02 09:53:00,
2013-01-02 04:58:00,31.3,21.6,29.84,WNW,292,2.3,2.3,67,0.00,CLR,CLR,0.00,WeatherDisplay:10.37,2013-01-02 09:58:00,
2013-01-02 05:03:00,31.3,21.6,29.84,WNW,292,0.0,0.0,67,0.00,CLR,CLR,0.00,WeatherDisplay:10.37,2013-01-02 10:03:00,
2013-01-02 05:08:00,31.3,21.6,29.84,SW,225,4.0,4.0,67,0.00,CLR,CLR,0.00,WeatherDisplay:10.37,2013-01-02 10:08:00,
2013-01-02 05:13:00,31.1,21.4,29.84,West,270,2.0,0.0,67,0.00,CLR,CLR,0.00,WeatherDisplay:10.37,2013-01-02 10:13:00,
2013-01-02 05:18:00,31.1,21.1,29.84,West,270,4.6,4.6,66,0.00,CLR,CLR,0.00,WeatherDisplay:10.37,2013-01-02 10:18:00,
2013-01-02 05:24:00,30.9,20.9,29.84,West,270,4.6,4.6,66,0.00,CLR,CLR,0.00,WeatherDisplay:10.37,2013-01-02 10:24:00,
2013-01-02 05:29:00,30.9,21.2,29.84,West,270,2.3,2.3,67,0.00,CLR,CLR,0.00,WeatherDisplay:10.37,2013-01-02 10:29:00,
2013-01-02 05:34:00,30.7,21.1,29.84,WNW,292,3.5,3.5,67,0.00,CLR,CLR,0.00,WeatherDisplay:10.37,2013-01-02 10:34:00,
2013-01-02 05:39:00,30.7,21.1,29.85,West,270,2.3,2.3,67,0.00,CLR,CLR,0.00,WeatherDisplay:10.37,2013-01-02 10:39:00,
2013-01-02 05:44:00,30.7,20.7,29.85,West,270,1.2,1.2,66,0.00,CLR,CLR,0.00,WeatherDisplay:10.37,2013-01-02 10:44:00,
2013-01-02 05:50:00,30.7,20.7,29.85,WNW,292,2.3,2.3,66,0.00,CLR,CLR,0.00,WeatherDisplay:10.37,2013-01-02 10:50:00,
2013-01-02 05:55:00,30.6,20.5,29.85,NW,315,2.3,2.3,66,0.00,CLR,CLR,0.00,WeatherDisplay:10.37,2013-01-02 10:55:00,
2013-01-02 06:00:00,30.4,20.4,29.86,WNW,292,0.0,0.0,66,0.00,CLR,CLR,0.00,WeatherDisplay:10.37,2013-01-02 11:00:00,
2013-01-02 06:05:00,30.4,20.4,29.86,NW,315,2.9,2.9,66,0.00,CLR,CLR,0.00,WeatherDisplay:10.37,2013-01-02 11:05:00,
2013-01-02 06:10:00,30.4,20.4,29.86,NW,315,3.5,3.5,66,0.00,CLR,CLR,0.00,WeatherDisplay:10.37,2013-01-02 11:10:00,
2013-01-02 06:15:00,30.2,20.2,29.86,NW,315,4.9,4.9,66,0.00,CLR,CLR,0.00,WeatherDisplay:10.37,2013-01-02 11:15:00,
2013-01-02 06:21:00,30.0,20.0,29.86,WNW,292,2.0,2.0,66,0.00,CLR,CLR,0.00,WeatherDisplay:10.37,2013-01-02 11:21:00,
2013-01-02 06:26:00,30.0,20.0,29.87,WNW,292,2.3,2.3,66,0.00,CLR,CLR,0.00,WeatherDisplay:10.37,2013-01-02 11:26:00,
2013-01-02 06:31:00,30.0,20.0,29.87,WNW,292,3.5,3.5,66,0.00,CLR,CLR,0.00,WeatherDisplay:10.37,2013-01-02 11:31:00,
2013-01-02 06:36:00,29.8,19.9,29.86,WNW,292,4.6,4.6,66,0.00,CLR,CLR,0.00,WeatherDisplay:10.37,2013-01-02 11:36:00,
2013-01-02 06:42:00,29.7,19.7,29.88,West,270,5.1,5.1,66,0.00,CLR,CLR,0.00,WeatherDisplay:10.37,2013-01-02 11:42:00,
2013-01-02 06:47:00,29.7,19.7,29.87,West,270,4.6,4.6,66,0.00,CLR,CLR,0.00,WeatherDisplay:10.37,2013-01-02 11:47:00,
2013-01-02 06:52:00,29.5,19.5,29.88,WNW,292,2.3,2.3,66,0.00,CLR,CLR,0.00,WeatherDisplay:10.37,2013-01-02 11:52:00,
2013-01-02 06:57:00,29.5,19.5,29.88,NNW,338,4.6,4.6,66,0.00,CLR,CLR,0.00,WeatherDisplay:10.37,2013-01-02 11:57:00,
2013-01-02 07:02:00,29.3,19.3,29.88,West,270,2.3,2.3,66,0.00,CLR,CLR,0.00,WeatherDisplay:10.37,2013-01-02 12:02:00,
2013-01-02 07:07:00,29.3,19.3,29.88,West,270,3.5,0.0,66,0.00,CLR,CLR,0.00,WeatherDisplay:10.37,2013-01-02 12:07:00,
2013-01-02 07:13:00,29.1,19.2,29.88,West,270,3.5,3.5,66,0.00,CLR,CLR,0.00,WeatherDisplay:10.37,2013-01-02 12:13:00,
2013-01-02 07:18:00,29.1,18.8,29.89,West,270,4.6,4.6,65,0.00,CLR,CLR,0.00,WeatherDisplay:10.37,2013-01-02 12:18:00,
2013-01-02 07:23:00,28.9,18.6,29.90,WNW,292,5.8,5.8,65,0.00,CLR,CLR,0.00,WeatherDisplay:10.37,2013-01-02 12:23:00,
2013-01-02 07:28:00,28.8,18.8,29.90,West,270,3.6,3.6,66,0.00,CLR,CLR,0.00,WeatherDisplay:10.37,2013-01-02 12:28:00,
2013-01-02 07:33:00,28.8,18.5,29.90,West,270,1.2,1.2,65,0.00,CLR,CLR,0.00,WeatherDisplay:10.37,2013-01-02 12:33:00,
2013-01-02 07:39:00,28.6,18.7,29.91,WNW,292,0.0,0.0,66,0.00,CLR,CLR,0.00,WeatherDisplay:10.37,2013-01-02 12:39:00,
2013-01-02 07:44:00,28.6,18.7,29.91,NW,315,0.0,0.0,66,0.00,CLR,CLR,0.00,WeatherDisplay:10.37,2013-01-02 12:44:00,
2013-01-02 07:49:00,28.2,18.3,29.90,WNW,292,1.2,1.2,66,0.00,CLR,CLR,0.00,WeatherDisplay:10.37,2013-01-02 12:49:00,
2013-01-02 07:54:00,28.2,18.3,29.90,WNW,292,0.0,0.0,66,0.00,CLR,CLR,0.00,WeatherDisplay:10.37,2013-01-02 12:54:00,
2013-01-02 07:59:00,28.2,18.3,29.90,WSW,248,1.2,0.0,66,0.00,CLR,CLR,0.00,WeatherDisplay:10.37,2013-01-02 12:59:00,
2013-01-02 08:04:00,28.2,18.3,29.90,WNW,292,2.3,2.3,66,0.00,CLR,CLR,0.00,WeatherDisplay:10.37,2013-01-02 13:04:00,
2013-01-02 08:09:00,28.2,18.3,29.91,West,270,4.6,4.6,66,0.00,CLR,CLR,0.00,WeatherDisplay:10.37,2013-01-02 13:09:00,
2013-01-02 08:14:00,28.2,18.3,29.91,NNW,338,3.5,3.5,66,0.00,CLR,CLR,0.00,WeatherDisplay:10.37,2013-01-02 13:14:00,
2013-01-02 08:20:00,28.2,18.3,29.91,NW,315,3.6,3.6,66,0.00,CLR,CLR,0.00,WeatherDisplay:10.37,2013-01-02 13:20:00,
2013-01-02 08:25:00,28.6,18.3,29.91,West,270,4.6,4.6,65,0.00,CLR,CLR,0.00,WeatherDisplay:10.37,2013-01-02 13:25:00,
2013-01-02 08:30:00,28.6,18.3,29.91,WNW,292,2.7,2.7,65,0.00,CLR,CLR,0.00,WeatherDisplay:10.37,2013-01-02 13:30:00,
2013-01-02 08:35:00,28.8,18.5,29.92,West,270,4.7,4.7,65,0.00,CLR,CLR,0.00,WeatherDisplay:10.37,2013-01-02 13:35:00,
2013-01-02 08:40:00,28.9,18.6,29.92,West,270,5.8,5.8,65,0.00,CLR,CLR,0.00,WeatherDisplay:10.37,2013-01-02 13:40:00,
2013-01-02 08:45:00,29.1,18.8,29.92,NW,315,5.1,5.1,65,0.00,CLR,CLR,0.00,WeatherDisplay:10.37,2013-01-02 13:45:00,
2013-01-02 08:51:00,29.1,18.5,29.92,West,270,6.9,6.9,64,0.00,CLR,CLR,0.00,WeatherDisplay:10.37,2013-01-02 13:51:00,
2013-01-02 08:56:00,29.1,18.1,29.92,West,270,5.8,5.8,63,0.00,CLR,CLR,0.00,WeatherDisplay:10.37,2013-01-02 13:56:00,
2013-01-02 09:01:00,29.3,18.3,29.92,WNW,292,7.8,7.8,63,0.00,CLR,CLR,0.00,WeatherDisplay:10.37,2013-01-02 14:01:00,
2013-01-02 09:06:00,29.5,18.4,29.93,WNW,292,6.7,6.7,63,0.00,CLR,CLR,0.00,WeatherDisplay:10.37,2013-01-02 14:06:00,
2013-01-02 09:11:00,29.7,18.2,29.93,WSW,248,6.0,6.0,62,0.00,CLR,CLR,0.00,WeatherDisplay:10.37,2013-01-02 14:11:00,
2013-01-02 09:16:00,29.8,18.4,29.93,West,270,5.8,5.8,62,0.00,CLR,CLR,0.00,WeatherDisplay:10.37,2013-01-02 14:16:00,
2013-01-02 09:21:00,30.0,18.2,29.94,WNW,292,3.5,3.5,61,0.00,CLR,CLR,0.00,WeatherDisplay:10.37,2013-01-02 14:21:00,
2013-01-02 09:27:00,30.4,18.5,29.95,WNW,292,5.8,5.8,61,0.00,CLR,CLR,0.00,WeatherDisplay:10.37,2013-01-02 14:27:00,
2013-01-02 09:32:00,30.7,18.5,29.94,SSW,202,8.1,8.1,60,0.00,CLR,CLR,0.00,WeatherDisplay:10.37,2013-01-02 14:32:00,
2013-01-02 09:37:00,30.7,18.5,29.94,WNW,292,2.3,2.3,60,0.00,CLR,CLR,0.00,WeatherDisplay:10.37,2013-01-02 14:37:00,
2013-01-02 09:42:00,30.9,18.7,29.95,North,0,4.6,4.6,60,0.00,CLR,CLR,0.00,WeatherDisplay:10.37,2013-01-02 14:42:00,
2013-01-02 09:48:00,31.1,18.4,29.95,West,270,5.8,5.8,59,0.00,CLR,CLR,0.00,WeatherDisplay:10.37,2013-01-02 14:48:00,
2013-01-02 09:53:00,31.1,18.4,29.95,WNW,292,2.3,2.3,59,0.00,CLR,CLR,0.00,WeatherDisplay:10.37,2013-01-02 14:53:00,
2013-01-02 09:58:00,31.6,18.9,29.95,South,180,5.8,5.8,59,0.00,CLR,CLR,0.00,WeatherDisplay:10.37,2013-01-02 14:58:00,
2013-01-02 10:04:00,31.8,19.1,29.95,NW,315,5.4,5.4,59,0.00,CLR,CLR,0.00,WeatherDisplay:10.37,2013-01-02 15:04:00,
2013-01-02 10:09:00,31.8,18.7,29.95,WSW,248,4.6,4.6,58,0.00,CLR,CLR,0.00,WeatherDisplay:10.37,2013-01-02 15:09:00,
2013-01-02 10:14:00,31.8,18.7,29.96,WNW,292,6.9,6.9,58,0.00,CLR,CLR,0.00,WeatherDisplay:10.37,2013-01-02 15:14:00,
2013-01-02 10:19:00,31.8,18.7,29.95,West,270,6.5,6.5,58,0.00,CLR,CLR,0.00,WeatherDisplay:10.37,2013-01-02 15:19:00,
2013-01-02 10:24:00,31.6,18.1,29.96,SSE,158,6.3,6.3,57,0.00,CLR,CLR,0.00,WeatherDisplay:10.37,2013-01-02 15:24:00,
2013-01-02 10:29:00,31.6,18.1,29.96,NW,315,4.0,4.0,57,0.00,CLR,CLR,0.00,WeatherDisplay:10.37,2013-01-02 15:29:00,
2013-01-02 10:34:00,31.8,18.7,29.95,NW,315,3.5,3.6,58,0.00,CLR,CLR,0.00,WeatherDisplay:10.37,2013-01-02 15:34:00,
2013-01-02 10:39:00,32.2,18.6,29.95,WNW,292,4.6,4.6,57,0.00,CLR,CLR,0.00,WeatherDisplay:10.37,2013-01-02 15:39:00,
2013-01-02 10:44:00,31.8,18.3,29.95,WNW,292,4.6,4.6,57,0.00,CLR,CLR,0.00,WeatherDisplay:10.37,2013-01-02 15:44:00,
2013-01-02 10:50:00,31.8,18.7,29.94,WSW,248,9.2,9.2,58,0.00,CLR,CLR,0.00,WeatherDisplay:10.37,2013-01-02 15:50:00,
2013-01-02 10:55:00,32.2,19.0,29.94,WNW,292,4.6,4.6,58,0.00,CLR,CLR,0.00,WeatherDisplay:10.37,2013-01-02 15:55:00,
2013-01-02 11:00:00,32.4,19.2,29.94,WNW,292,5.8,5.8,58,0.00,CLR,CLR,0.00,WeatherDisplay:10.37,2013-01-02 16:00:00,
2013-01-02 11:05:00,32.4,18.8,29.95,SSW,202,1.2,1.2,57,0.00,CLR,CLR,0.00,WeatherDisplay:10.37,2013-01-02 16:05:00,
2013-01-02 11:10:00,32.7,19.1,29.95,WSW,248,4.7,4.7,57,0.00,CLR,CLR,0.00,WeatherDisplay:10.37,2013-01-02 16:10:00,
2013-01-02 11:16:00,33.3,19.7,29.95,WSW,248,11.4,11.4,57,0.00,CLR,CLR,0.00,WeatherDisplay:10.37,2013-01-02 16:16:00,
2013-01-02 11:21:00,33.8,20.2,29.94,WNW,292,5.8,5.8,57,0.00,CLR,CLR,0.00,WeatherDisplay:10.37,2013-01-02 16:21:00,
2013-01-02 11:26:00,34.3,19.8,29.94,WNW,292,6.0,6.0,55,0.00,CLR,CLR,0.00,WeatherDisplay:10.37,2013-01-02 16:26:00,
2013-01-02 11:31:00,34.2,19.7,29.94,WSW,248,3.5,3.5,55,0.00,CLR,CLR,0.00,WeatherDisplay:10.37,2013-01-02 16:31:00,
2013-01-02 11:36:00,34.3,19.8,29.94,West,270,4.6,4.6,55,0.00,CLR,CLR,0.00,WeatherDisplay:10.37,2013-01-02 16:36:00,
2013-01-02 11:42:00,34.3,19.8,29.94,West,270,3.1,3.1,55,0.00,CLR,CLR,0.00,WeatherDisplay:10.37,2013-01-02 16:42:00,
2013-01-02 11:47:00,34.3,19.4,29.93,SW,225,5.8,5.8,54,0.00,CLR,CLR,0.00,WeatherDisplay:10.37,2013-01-02 16:47:00,
2013-01-02 11:52:00,34.3,19.0,29.93,SW,225,5.8,5.8,53,0.00,CLR,CLR,0.00,WeatherDisplay:10.37,2013-01-02 16:52:00,
2013-01-02 11:57:00,34.3,19.0,29.93,SSW,202,6.9,6.9,53,0.00,CLR,CLR,0.00,WeatherDisplay:10.37,2013-01-02 16:57:00,
2013-01-02 12:02:00,34.3,19.4,29.93,SSW,202,4.6,4.6,54,0.00,CLR,CLR,0.00,WeatherDisplay:10.37,2013-01-02 17:02:00,
2013-01-02 12:08:00,34.7,19.7,29.93,SW,225,8.1,8.1,54,0.00,CLR,CLR,0.00,WeatherDisplay:10.37,2013-01-02 17:08:00,
2013-01-02 12:13:00,35.4,20.4,29.92,NW,315,4.6,4.6,54,0.00,CLR,CLR,0.00,WeatherDisplay:10.37,2013-01-02 17:13:00,
2013-01-02 12:18:00,36.0,20.5,29.92,WNW,292,4.6,4.6,53,0.00,CLR,CLR,0.00,WeatherDisplay:10.37,2013-01-02 17:18:00,
2013-01-02 12:23:00,35.8,19.9,29.93,SW,225,12.7,12.7,52,0.00,CLR,CLR,0.00,WeatherDisplay:10.37,2013-01-02 17:23:00,
2013-01-02 12:28:00,36.1,20.6,29.92,SW,225,11.5,11.5,53,0.00,CLR,CLR,0.00,WeatherDisplay:10.37,2013-01-02 17:28:00,
2013-01-02 12:33:00,36.9,21.3,29.92,NW,315,2.9,2.9,53,0.00,CLR,CLR,0.00,WeatherDisplay:10.37,2013-01-02 17:33:00,
2013-01-02 12:38:00,37.0,20.6,29.91,West,270,6.7,6.7,51,0.00,CLR,CLR,0.00,WeatherDisplay:10.37,2013-01-02 17:38:00,
2013-01-02 12:44:00,36.1,19.3,29.91,WNW,292,5.8,5.8,50,0.00,CLR,CLR,0.00,WeatherDisplay:10.37,2013-01-02 17:44:00,
2013-01-02 12:49:00,35.8,19.4,29.92,WNW,292,4.6,4.6,51,0.00,CLR,CLR,0.00,WeatherDisplay:10.37,2013-01-02 17:49:00,
2013-01-02 12:54:00,35.6,19.2,29.92,WSW,248,3.1,3.1,51,0.00,CLR,CLR,0.00,WeatherDisplay:10.37,2013-01-02 17:54:00,
2013-01-02 12:59:00,35.8,19.9,29.92,NNW,338,4.6,4.6,52,0.00,CLR,CLR,0.00,WeatherDisplay:10.37,2013-01-02 17:59:00,
2013-01-02 13:04:00,36.0,19.6,29.92,WSW,248,5.4,5.4,51,0.00,CLR,CLR,0.00,WeatherDisplay:10.37,2013-01-02 18:04:00,
2013-01-02 13:09:00,36.3,20.4,29.91,WSW,248,6.9,6.9,52,0.00,CLR,CLR,0.00,WeatherDisplay:10.37,2013-01-02 18:09:00,
2013-01-02 13:14:00,36.5,20.1,29.90,West,270,5.8,5.8,51,0.00,CLR,CLR,0.00,WeatherDisplay:10.37,2013-01-02 18:14:00,
2013-01-02 13:20:00,36.3,19.4,29.91,NW,315,2.3,2.3,50,0.00,CLR,CLR,0.00,WeatherDisplay:10.37,2013-01-02 18:20:00,
2013-01-02 13:25:00,36.0,19.1,29.90,WSW,248,3.6,3.6,50,0.00,CLR,CLR,0.00,WeatherDisplay:10.37,2013-01-02 18:25:00,
2013-01-02 13:30:00,35.4,18.6,29.91,NE,45,5.6,5.6,50,0.00,CLR,CLR,0.00,WeatherDisplay:10.37,2013-01-02 18:30:00,
2013-01-02 13:35:00,35.4,18.6,29.91,WNW,292,3.5,3.5,50,0.00,CLR,CLR,0.00,WeatherDisplay:10.37,2013-01-02 18:35:00,
2013-01-02 13:40:00,35.6,18.8,29.91,West,270,3.5,3.5,50,0.00,CLR,CLR,0.00,WeatherDisplay:10.37,2013-01-02 18:40:00,
2013-01-02 13:46:00,35.8,18.5,29.91,West,270,4.6,4.6,49,0.00,CLR,CLR,0.00,WeatherDisplay:10.37,2013-01-02 18:46:00,
2013-01-02 13:51:00,35.4,18.6,29.91,WSW,248,5.8,5.8,50,0.00,CLR,CLR,0.00,WeatherDisplay:10.37,2013-01-02 18:51:00,
2013-01-02 13:56:00,35.8,18.5,29.92,SW,225,6.9,6.9,49,0.00,CLR,CLR,0.00,WeatherDisplay:10.37,2013-01-02 18:56:00,
2013-01-02 14:01:00,35.8,18.9,29.92,SW,225,4.6,4.6,50,0.00,CLR,CLR,0.00,WeatherDisplay:10.37,2013-01-02 19:01:00,
2013-01-02 14:06:00,36.0,19.1,29.92,SW,225,4.6,4.6,50,0.00,CLR,CLR,0.00,WeatherDisplay:10.37,2013-01-02 19:06:00,
2013-01-02 14:11:00,36.1,19.3,29.92,WNW,292,4.7,4.7,50,0.00,CLR,CLR,0.00,WeatherDisplay:10.37,2013-01-02 19:11:00,
2013-01-02 14:16:00,36.1,18.3,29.92,SW,225,9.2,9.2,48,0.00,CLR,CLR,0.00,WeatherDisplay:10.37,2013-01-02 19:16:00,
2013-01-02 14:21:00,35.8,17.5,29.92,WSW,248,5.8,5.8,47,0.00,CLR,CLR,0.00,WeatherDisplay:10.37,2013-01-02 19:21:00,
2013-01-02 14:26:00,35.4,17.7,29.92,WSW,248,6.5,6.5,48,0.00,CLR,CLR,0.00,WeatherDisplay:10.37,2013-01-02 19:26:00,
2013-01-02 14:32:00,35.4,18.1,29.92,West,270,6.9,6.9,49,0.00,CLR,CLR,0.00,WeatherDisplay:10.37,2013-01-02 19:32:00,
2013-01-02 14:37:00,35.6,18.3,29.92,WSW,248,5.8,5.8,49,0.00,CLR,CLR,0.00,WeatherDisplay:10.37,2013-01-02 19:37:00,
2013-01-02 14:42:00,35.8,18.0,29.92,SSW,202,3.5,3.5,48,0.00,CLR,CLR,0.00,WeatherDisplay:10.37,2013-01-02 19:42:00,
2013-01-02 14:47:00,35.8,17.5,29.92,West,270,4.6,4.6,47,0.00,CLR,CLR,0.00,WeatherDisplay:10.37,2013-01-02 19:47:00,
2013-01-02 14:52:00,35.6,17.3,29.92,WSW,248,6.3,6.3,47,0.00,CLR,CLR,0.00,WeatherDisplay:10.37,2013-01-02 19:52:00,
2013-01-02 14:58:00,35.4,17.2,29.92,West,270,5.8,5.8,47,0.00,CLR,CLR,0.00,WeatherDisplay:10.37,2013-01-02 19:58:00,
2013-01-02 15:03:00,35.2,17.0,29.92,West,270,8.1,8.1,47,0.00,CLR,CLR,0.00,WeatherDisplay:10.37,2013-01-02 20:03:00,
2013-01-02 15:08:00,35.2,17.0,29.93,West,270,4.6,4.6,47,0.00,CLR,CLR,0.00,WeatherDisplay:10.37,2013-01-02 20:08:00,
2013-01-02 15:13:00,34.9,16.7,29.93,WSW,248,5.8,5.8,47,0.00,CLR,CLR,0.00,WeatherDisplay:10.37,2013-01-02 20:13:00,
2013-01-02 15:18:00,34.9,16.7,29.93,WNW,292,9.2,9.2,47,0.00,CLR,CLR,0.00,WeatherDisplay:10.37,2013-01-02 20:18:00,
2013-01-02 15:23:00,34.5,16.3,29.93,WNW,292,6.3,6.3,47,0.00,CLR,CLR,0.00,WeatherDisplay:10.37,2013-01-02 20:23:00,
2013-01-02 15:28:00,34.3,16.2,29.93,WNW,292,5.8,5.8,47,0.00,CLR,CLR,0.00,WeatherDisplay:10.37,2013-01-02 20:28:00,
2013-01-02 15:33:00,34.3,16.2,29.93,NW,315,6.3,6.3,47,0.00,CLR,CLR,0.00,WeatherDisplay:10.37,2013-01-02 20:33:00,
2013-01-02 15:39:00,34.3,16.2,29.94,WNW,292,4.6,4.6,47,0.00,CLR,CLR,0.00,WeatherDisplay:10.37,2013-01-02 20:39:00,
2013-01-02 15:44:00,34.3,16.2,29.94,SSE,158,5.8,5.8,47,0.00,CLR,CLR,0.00,WeatherDisplay:10.37,2013-01-02 20:44:00,
2013-01-02 15:49:00,34.3,16.2,29.94,NW,315,5.8,5.8,47,0.00,CLR,CLR,0.00,WeatherDisplay:10.37,2013-01-02 20:49:00,
2013-01-02 15:54:00,34.3,16.2,29.94,WNW,292,6.9,6.9,47,0.00,CLR,CLR,0.00,WeatherDisplay:10.37,2013-01-02 20:54:00,
2013-01-02 15:59:00,34.0,15.8,29.94,WNW,292,3.5,3.5,47,0.00,CLR,CLR,0.00,WeatherDisplay:10.37,2013-01-02 20:59:00,
2013-01-02 16:04:00,34.0,15.8,29.94,West,270,4.2,4.2,47,0.00,CLR,CLR,0.00,WeatherDisplay:10.37,2013-01-02 21:04:00,
2013-01-02 16:10:00,33.8,15.7,29.95,West,270,5.8,5.8,47,0.00,CLR,CLR,0.00,WeatherDisplay:10.37,2013-01-02 21:10:00,
2013-01-02 16:15:00,33.6,15.0,29.95,West,270,4.6,4.6,46,0.00,CLR,CLR,0.00,WeatherDisplay:10.37,2013-01-02 21:15:00,
2013-01-02 16:20:00,33.4,14.8,29.95,WNW,292,4.7,4.7,46,0.00,CLR,CLR,0.00,WeatherDisplay:10.37,2013-01-02 21:20:00,
2013-01-02 16:25:00,33.1,14.5,29.95,West,270,6.9,6.9,46,0.00,CLR,CLR,0.00,WeatherDisplay:10.37,2013-01-02 21:25:00,
2013-01-02 16:30:00,32.9,14.8,29.96,NNW,338,6.9,6.9,47,0.00,CLR,CLR,0.00,WeatherDisplay:10.37,2013-01-02 21:30:00,
2013-01-02 16:36:00,32.7,14.7,29.96,WNW,292,5.8,5.8,47,0.00,CLR,CLR,0.00,WeatherDisplay:10.37,2013-01-02 21:36:00,
2013-01-02 16:41:00,32.5,14.5,29.96,WNW,292,1.2,1.2,47,0.00,CLR,CLR,0.00,WeatherDisplay:10.37,2013-01-02 21:41:00,
2013-01-02 16:46:00,32.4,14.8,29.95,WNW,292,5.8,5.8,48,0.00,CLR,CLR,0.00,WeatherDisplay:10.37,2013-01-02 21:46:00,
2013-01-02 16:51:00,32.4,14.4,29.95,WNW,292,4.0,4.0,47,0.00,CLR,CLR,0.00,WeatherDisplay:10.37,2013-01-02 21:51:00,
2013-01-02 16:56:00,32.2,14.2,29.95,West,270,2.3,2.3,47,0.00,CLR,CLR,0.00,WeatherDisplay:10.37,2013-01-02 21:56:00,
2013-01-02 17:01:00,31.8,14.3,29.95,WNW,292,2.3,2.3,48,0.00,CLR,CLR,0.00,WeatherDisplay:10.37,2013-01-02 22:01:00,
2013-01-02 17:06:00,31.6,14.2,29.95,West,270,0.0,0.0,48,0.00,CLR,CLR,0.00,WeatherDisplay:10.37,2013-01-02 22:06:00,
2013-01-02 17:11:00,31.5,14.0,29.96,NW,315,0.0,0.0,48,0.00,CLR,CLR,0.00,WeatherDisplay:10.37,2013-01-02 22:11:00,
2013-01-02 17:17:00,31.3,14.3,29.96,WNW,292,1.1,1.1,49,0.00,CLR,CLR,0.00,WeatherDisplay:10.37,2013-01-02 22:17:00,
2013-01-02 17:22:00,31.3,13.8,29.96,NW,315,0.0,0.0,48,0.00,CLR,CLR,0.00,WeatherDisplay:10.37,2013-01-02 22:22:00,
2013-01-02 17:27:00,31.1,14.1,29.96,WNW,292,1.2,0.0,49,0.00,CLR,CLR,0.00,WeatherDisplay:10.37,2013-01-02 22:27:00,
2013-01-02 17:32:00,30.9,14.0,29.96,West,270,0.0,0.0,49,0.00,CLR,CLR,0.00,WeatherDisplay:10.37,2013-01-02 22:32:00,
2013-01-02 17:37:00,30.7,14.3,29.97,West,270,0.0,0.4,50,0.00,CLR,CLR,0.00,WeatherDisplay:10.37,2013-01-02 22:37:00,
2013-01-02 17:43:00,30.4,13.9,29.97,WSW,248,0.0,0.0,50,0.00,CLR,CLR,0.00,WeatherDisplay:10.37,2013-01-02 22:43:00,
2013-01-02 17:48:00,30.0,14.1,29.97,West,270,0.0,0.0,51,0.00,CLR,CLR,0.00,WeatherDisplay:10.37,2013-01-02 22:48:00,
2013-01-02 17:53:00,30.0,14.1,29.97,West,270,0.0,0.0,51,0.00,CLR,CLR,0.00,WeatherDisplay:10.37,2013-01-02 22:53:00,
2013-01-02 17:58:00,29.8,13.9,29.97,West,270,0.0,0.0,51,0.00,CLR,CLR,0.00,WeatherDisplay:10.37,2013-01-02 22:58:00,
2013-01-02 18:03:00,29.5,14.0,29.98,West,270,0.0,0.0,52,0.00,CLR,CLR,0.00,WeatherDisplay:10.37,2013-01-02 23:03:00,
2013-01-02 18:08:00,29.3,14.3,29.97,WSW,248,0.0,0.0,53,0.00,CLR,CLR,0.00,WeatherDisplay:10.37,2013-01-02 23:08:00,
2013-01-02 18:13:00,29.1,14.5,29.98,West,270,0.0,0.0,54,0.00,CLR,CLR,0.00,WeatherDisplay:10.37,2013-01-02 23:13:00,
2013-01-02 18:18:00,28.6,14.0,29.98,West,270,0.0,0.0,54,0.00,CLR,CLR,0.00,WeatherDisplay:10.37,2013-01-02 23:18:00,
2013-01-02 18:23:00,28.2,13.7,29.98,WSW,248,0.0,0.0,54,0.00,CLR,CLR,0.00,WeatherDisplay:10.37,2013-01-02 23:23:00,
2013-01-02 18:29:00,28.2,13.7,29.99,West,270,0.0,0.0,54,0.00,CLR,CLR,0.00,WeatherDisplay:10.37,2013-01-02 23:29:00,
2013-01-02 18:34:00,28.0,13.5,29.98,NE,45,0.0,0.0,54,0.00,CLR,CLR,0.00,WeatherDisplay:10.37,2013-01-02 23:34:00,
2013-01-02 18:39:00,28.0,13.9,29.99,NE,45,0.0,0.0,55,0.00,CLR,CLR,0.00,WeatherDisplay:10.37,2013-01-02 23:39:00,
2013-01-02 18:44:00,28.0,14.8,29.99,SSW,202,0.0,0.0,57,0.00,CLR,CLR,0.00,WeatherDisplay:10.37,2013-01-02 23:44:00,
2013-01-02 18:49:00,28.0,14.8,29.99,SSW,202,0.0,0.0,57,0.00,CLR,CLR,0.00,WeatherDisplay:10.37,2013-01-02 23:49:00,
2013-01-02 18:55:00,27.9,14.6,29.99,SSW,202,0.0,0.0,57,0.00,CLR,CLR,0.00,WeatherDisplay:10.37,2013-01-02 23:55:00,
2013-01-02 19:00:00,27.5,14.2,29.99,SSW,202,0.0,0.0,57,0.00,CLR,CLR,0.00,WeatherDisplay:10.37,2013-01-03 00:00:00,
2013-01-02 19:05:00,27.3,14.1,29.99,SSW,202,0.0,0.0,57,0.00,CLR,CLR,0.00,WeatherDisplay:10.37,2013-01-03 00:05:00,
2013-01-02 19:10:00,27.3,14.1,29.99,ENE,68,0.0,0.0,57,0.00,CLR,CLR,0.00,WeatherDisplay:10.37,2013-01-03 00:10:00,
2013-01-02 19:15:00,27.3,14.5,29.99,SSW,202,0.0,0.0,58,0.00,CLR,CLR,0.00,WeatherDisplay:10.37,2013-01-03 00:15:00,
2013-01-02 19:21:00,27.3,14.9,29.98,SSW,202,0.0,0.0,59,0.00,CLR,CLR,0.00,WeatherDisplay:10.37,2013-01-03 00:21:00,
2013-01-02 19:26:00,27.3,15.2,29.99,SSW,202,0.0,0.0,60,0.00,CLR,CLR,0.00,WeatherDisplay:10.37,2013-01-03 00:26:00,
2013-01-02 19:31:00,27.1,15.5,29.99,WSW,248,0.0,0.0,61,0.00,CLR,CLR,0.00,WeatherDisplay:10.37,2013-01-03 00:31:00,
2013-01-02 19:36:00,27.1,15.5,30.00,West,270,0.0,0.0,61,0.00,CLR,CLR,0.00,WeatherDisplay:10.37,2013-01-03 00:36:00,
2013-01-02 19:41:00,27.0,14.9,30.00,WSW,248,0.0,0.0,60,0.00,CLR,CLR,0.00,WeatherDisplay:10.37,2013-01-03 00:41:00,
2013-01-02 19:47:00,27.1,14.7,29.99,NW,315,0.0,0.0,59,0.00,CLR,CLR,0.00,WeatherDisplay:10.37,2013-01-03 00:47:00,
2013-01-02 19:52:00,27.1,14.7,30.00,WNW,292,0.0,0.0,59,0.00,CLR,CLR,0.00,WeatherDisplay:10.37,2013-01-03 00:52:00,
2013-01-02 19:57:00,27.1,14.7,30.00,WNW,292,0.0,0.0,59,0.00,CLR,CLR,0.00,WeatherDisplay:10.37,2013-01-03 00:57:00,
2013-01-02 20:02:00,27.1,14.7,30.00,NNW,338,0.0,0.0,59,0.00,CLR,CLR,0.00,WeatherDisplay:10.37,2013-01-03 01:02:00,
2013-01-02 20:07:00,27.3,14.5,30.00,NNE,22,1.2,0.0,58,0.00,CLR,CLR,0.00,WeatherDisplay:10.37,2013-01-03 01:07:00,
2013-01-02 20:13:00,27.5,14.6,29.99,NNW,338,0.0,0.0,58,0.00,CLR,CLR,0.00,WeatherDisplay:10.37,2013-01-03 01:13:00,
2013-01-02 20:18:00,27.7,14.8,29.99,NW,315,0.0,0.0,58,0.00,CLR,CLR,0.00,WeatherDisplay:10.37,2013-01-03 01:18:00,
2013-01-02 20:23:00,27.7,15.2,30.00,ENE,68,0.0,0.0,59,0.00,CLR,CLR,0.00,WeatherDisplay:10.37,2013-01-03 01:23:00,
2013-01-02 20:28:00,27.7,16.0,30.00,ESE,112,0.0,0.0,61,0.00,CLR,CLR,0.00,WeatherDisplay:10.37,2013-01-03 01:28:00,
2013-01-02 20:33:00,27.5,16.2,30.00,South,180,0.0,0.0,62,0.00,CLR,CLR,0.00,WeatherDisplay:10.37,2013-01-03 01:33:00,
2013-01-02 20:38:00,27.5,16.5,30.00,South,180,0.0,0.0,63,0.00,CLR,CLR,0.00,WeatherDisplay:10.37,2013-01-03 01:38:00,
2013-01-02 20:44:00,27.1,16.6,30.00,SW,225,0.0,0.0,64,0.00,CLR,CLR,0.00,WeatherDisplay:10.37,2013-01-03 01:44:00,
2013-01-02 20:49:00,27.1,16.2,30.00,West,270,0.0,0.0,63,0.00,CLR,CLR,0.00,WeatherDisplay:10.37,2013-01-03 01:49:00,
2013-01-02 20:54:00,27.0,15.7,30.00,SW,225,1.8,1.8,62,0.00,CLR,CLR,0.00,WeatherDisplay:10.37,2013-01-03 01:54:00,
2013-01-02 20:59:00,27.0,15.3,30.00,NW,315,2.0,0.0,61,0.00,CLR,CLR,0.00,WeatherDisplay:10.37,2013-01-03 01:59:00,
2013-01-02 21:05:00,27.1,15.5,30.00,WNW,292,2.3,2.3,61,0.00,CLR,CLR,0.00,WeatherDisplay:10.37,2013-01-03 02:05:00,
2013-01-02 21:10:00,27.5,15.4,30.00,SW,225,3.8,3.8,60,0.00,CLR,CLR,0.00,WeatherDisplay:10.37,2013-01-03 02:10:00,
2013-01-02 21:15:00,28.0,15.5,30.00,SW,225,3.5,0.0,59,0.00,CLR,CLR,0.00,WeatherDisplay:10.37,2013-01-03 02:15:00,
2013-01-02 21:20:00,28.0,15.5,30.01,East,90,0.0,0.0,59,0.00,CLR,CLR,0.00,WeatherDisplay:10.37,2013-01-03 02:20:00,
2013-01-02 21:25:00,28.0,15.5,30.01,ENE,68,0.0,0.0,59,0.00,CLR,CLR,0.00,WeatherDisplay:10.37,2013-01-03 02:25:00,
2013-01-02 21:31:00,28.0,15.5,30.02,NNE,22,0.0,0.0,59,0.00,CLR,CLR,0.00,WeatherDisplay:10.37,2013-01-03 02:31:00,
2013-01-02 21:36:00,28.2,16.1,30.01,ESE,112,0.0,0.0,60,0.00,CLR,CLR,0.00,WeatherDisplay:10.37,2013-01-03 02:36:00,
2013-01-02 21:41:00,28.0,16.7,30.02,ESE,112,0.0,0.0,62,0.00,CLR,CLR,0.00,WeatherDisplay:10.37,2013-01-03 02:41:00,
2013-01-02 21:46:00,28.0,16.7,30.01,SE,135,0.0,0.0,62,0.00,CLR,CLR,0.00,WeatherDisplay:10.37,2013-01-03 02:46:00,
2013-01-02 21:51:00,27.7,16.0,30.01,SE,135,0.0,0.0,61,0.00,CLR,CLR,0.00,WeatherDisplay:10.37,2013-01-03 02:51:00,
2013-01-02 21:57:00,27.7,16.3,30.02,SE,135,0.0,0.0,62,0.00,CLR,CLR,0.00,WeatherDisplay:10.37,2013-01-03 02:57:00,
2013-01-02 22:02:00,27.5,16.5,30.02,SE,135,0.0,0.0,63,0.00,CLR,CLR,0.00,WeatherDisplay:10.37,2013-01-03 03:02:00,
2013-01-02 22:07:00,27.3,16.7,30.02,SE,135,0.0,0.0,64,0.00,CLR,CLR,0.00,WeatherDisplay:10.37,2013-01-03 03:07:00,
2013-01-02 22:12:00,27.1,16.6,30.03,SE,135,0.0,0.0,64,0.00,CLR,CLR,0.00,WeatherDisplay:10.37,2013-01-03 03:12:00,
2013-01-02 22:17:00,27.1,16.6,30.03,SE,135,0.0,0.0,64,0.00,CLR,CLR,0.00,WeatherDisplay:10.37,2013-01-03 03:17:00,
2013-01-02 22:23:00,27.0,16.8,30.03,SE,135,0.0,0.0,65,0.00,CLR,CLR,0.00,WeatherDisplay:10.37,2013-01-03 03:23:00,
2013-01-02 22:28:00,26.6,16.4,30.03,SSW,202,0.0,0.0,65,0.00,CLR,CLR,0.00,WeatherDisplay:10.37,2013-01-03 03:28:00,
2013-01-02 22:33:00,26.4,16.2,30.03,SSW,202,0.0,0.0,65,0.00,CLR,CLR,0.00,WeatherDisplay:10.37,2013-01-03 03:33:00,
2013-01-02 22:40:00,26.2,16.1,30.03,WSW,248,0.0,0.0,65,0.00,CLR,CLR,0.00,WeatherDisplay:10.37,2013-01-03 03:40:00,
2013-01-02 22:45:00,26.1,15.9,30.03,WSW,248,0.0,0.0,65,0.00,CLR,CLR,0.00,WeatherDisplay:10.37,2013-01-03 03:45:00,
2013-01-02 22:51:00,26.1,15.9,30.03,WSW,248,0.0,0.0,65,0.00,CLR,CLR,0.00,WeatherDisplay:10.37,2013-01-03 03:51:00,
2013-01-02 22:56:00,25.9,15.4,30.02,WSW,248,0.0,0.0,64,0.00,CLR,CLR,0.00,WeatherDisplay:10.37,2013-01-03 03:56:00,
2013-01-02 23:01:00,25.9,15.7,30.03,WSW,248,0.0,0.0,65,0.00,CLR,CLR,0.00,WeatherDisplay:10.37,2013-01-03 04:01:00,
2013-01-02 23:06:00,25.9,15.7,30.03,WSW,248,0.0,0.0,65,0.00,CLR,CLR,0.00,WeatherDisplay:10.37,2013-01-03 04:06:00,
2013-01-02 23:11:00,25.9,16.1,30.03,WSW,248,0.0,0.0,66,0.00,CLR,CLR,0.00,WeatherDisplay:10.37,2013-01-03 04:11:00,
2013-01-02 23:16:00,25.9,16.1,30.02,WSW,248,0.0,0.0,66,0.00,CLR,CLR,0.00,WeatherDisplay:10.37,2013-01-03 04:16:00,
2013-01-02 23:22:00,25.7,15.6,30.02,WSW,248,0.0,0.0,65,0.00,CLR,CLR,0.00,WeatherDisplay:10.37,2013-01-03 04:22:00,
2013-01-02 23:27:00,25.5,15.7,30.02,WSW,248,0.0,0.0,66,0.00,CLR,CLR,0.00,WeatherDisplay:10.37,2013-01-03 04:27:00,
2013-01-02 23:32:00,25.3,15.6,30.02,WSW,248,0.0,0.0,66,0.00,CLR,CLR,0.00,WeatherDisplay:10.37,2013-01-03 04:32:00,
2013-01-02 23:37:00,25.0,15.2,30.03,WSW,248,0.0,0.0,66,0.00,CLR,CLR,0.00,WeatherDisplay:10.37,2013-01-03 04:37:00,
2013-01-02 23:42:00,25.0,15.6,30.02,WSW,248,0.0,0.0,67,0.00,CLR,CLR,0.00,WeatherDisplay:10.37,2013-01-03 04:42:00,
2013-01-02 23:47:00,25.0,15.6,30.03,WSW,248,0.0,0.0,67,0.00,CLR,CLR,0.00,WeatherDisplay:10.37,2013-01-03 04:47:00,
2013-01-02 23:53:00,24.8,15.4,30.03,WSW,248,0.0,0.0,67,0.00,CLR,CLR,0.00,WeatherDisplay:10.37,2013-01-03 04:53:00,
2013-01-02 23:58:00,24.6,15.2,30.03,WSW,248,0.0,0.0,67,0.00,CLR,CLR,0.00,WeatherDisplay:10.37,2013-01-03 04:58:00,